<?xml version='1.0' encoding='UTF-8'?>
<gpx xmlns="http://www.topografix.com/GPX/1/1" creator="www.balnam.be" version="1.1" xmlns:xsi="http://www.w3.org/2001/XMLSchema-instance" xsi:schemaLocation="http://www.topografix.com/GPX/1/1 http://www.topografix.com/GPX/1/1/gpx.xsd">
<trk>
<name>heqhwLv431bis</name>
<cmt>v</cmt>
<desc>Hantes-Wihéries Chemin n°Lv431bis Chemin du Tram / Rue du Vieux Moulin</desc>
<link href="https://chemins.be/hanteswiheries/chemin/Lv431bis"/><trkseg>
<trkpt lat="50.307842" lon="4.170044"><time>2026-05-03T07:35:02Z</time></trkpt>
<trkpt lat="50.307497" lon="4.173485"><time>2026-05-03T07:45:02Z</time></trkpt>
<trkpt lat="50.307032" lon="4.174484"><time>2026-05-03T07:55:02Z</time></trkpt>
<trkpt lat="50.306798" lon="4.174681"><time>2026-05-03T08:05:02Z</time></trkpt>
<trkpt lat="50.306044" lon="4.175246"><time>2026-05-03T08:15:02Z</time></trkpt>
<trkpt lat="50.304670" lon="4.176332"><time>2026-05-03T08:25:02Z</time></trkpt>
<trkpt lat="50.304078" lon="4.176770"><time>2026-05-03T08:35:02Z</time></trkpt>
<trkpt lat="50.303089" lon="4.177139"><time>2026-05-03T08:45:02Z</time></trkpt>
</trkseg></trk>
<trk>
<name>heqhwLv431bis</name>
<cmt>r</cmt>
<desc>Hantes-Wihéries Chemin n°Lv431bis Chemin du Tram / Rue du Vieux Moulin</desc>
<link href="https://chemins.be/hanteswiheries/chemin/Lv431bis"/><trkseg>
<trkpt lat="50.303089" lon="4.177139"><time>2026-05-03T08:45:02Z</time></trkpt>
<trkpt lat="50.302784" lon="4.177421"><time>2026-05-03T08:55:02Z</time></trkpt>
<trkpt lat="50.302470" lon="4.177829"><time>2026-05-03T09:05:02Z</time></trkpt>
</trkseg></trk>
<trk>
<name>heqhwLv431bis</name>
<cmt>v</cmt>
<desc>Hantes-Wihéries Chemin n°Lv431bis Chemin du Tram / Rue du Vieux Moulin</desc>
<link href="https://chemins.be/hanteswiheries/chemin/Lv431bis"/><trkseg>
<trkpt lat="50.302470" lon="4.177829"><time>2026-05-03T09:05:02Z</time></trkpt>
<trkpt lat="50.300587" lon="4.180630"><time>2026-05-03T09:15:02Z</time></trkpt>
<trkpt lat="50.300066" lon="4.181291"><time>2026-05-03T09:25:02Z</time></trkpt>
<trkpt lat="50.299689" lon="4.181672"><time>2026-05-03T09:35:02Z</time></trkpt>
<trkpt lat="50.298269" lon="4.181958"><time>2026-05-03T09:45:02Z</time></trkpt>
<trkpt lat="50.297640" lon="4.182143"><time>2026-05-03T09:55:02Z</time></trkpt>
<trkpt lat="50.297011" lon="4.182454"><time>2026-05-03T10:05:02Z</time></trkpt>
<trkpt lat="50.296392" lon="4.182976"><time>2026-05-03T10:15:02Z</time></trkpt>
<trkpt lat="50.294561" lon="4.185158"><time>2026-05-03T10:25:02Z</time></trkpt>
<trkpt lat="50.294059" lon="4.185711"><time>2026-05-03T10:35:02Z</time></trkpt>
<trkpt lat="50.293902" lon="4.185791"><time>2026-05-03T10:45:02Z</time></trkpt>
<trkpt lat="50.293708" lon="4.185906"><time>2026-05-03T10:55:02Z</time></trkpt>
<trkpt lat="50.293448" lon="4.186005"><time>2026-05-03T11:05:02Z</time></trkpt>
<trkpt lat="50.292008" lon="4.186312"><time>2026-05-03T11:15:02Z</time></trkpt>
</trkseg>
</trk>
</gpx>